logo
App data

SLG Remix

SLG Remix is an alternate kinetic version of the brand new 16-bit horror visual novel/adventure Mega Drive game Sacred Line Genesis. A surreal, twisted kinetic novel tribute to obscure visual novel / adventure games of 90s.
Store | Hub | SteamDB | Site
Developer: 1812 Productions (PC Port) Publisher: 1812 Productions
Genre: Adventure, Casual, Indie
Languages: English
Tags: Adventure (23), Casual (22), Indie (21), Gore (20), Violent (20), Visual Novel (7), Horror (6)
Category: Single-player, Steam Trading Cards
Release date: Jun 1, 2016
Price: $2.99
Owners: 0 .. 20,000
Followers: 121
Playtime total: 03:14 (average) 03:14 (median)

Steam Spy is still in beta, so expect major bugs.

Owners data:

Access restricted.

This feature is only available to users with special access rights. Sorry.

If you want to proceed, you need to register or log in first and then back Steam Spy on Patreon. Look for Indie or Pro pledge.

Don't forget to use the same email as on Steam Spy!

If you've recently backed Steam Spy on Patreon, please note, that it might take around 15 minutes for your access rights to sync. In most cases you'll need to re-login on Steam Spy too.

Audience in 2 weeks:

Access restricted.

This feature is only available to users with special access rights. Sorry.

If you want to proceed, you need to register or log in first and then back Steam Spy on Patreon. Look for Indie or Pro pledge.

Don't forget to use the same email as on Steam Spy!

If you've recently backed Steam Spy on Patreon, please note, that it might take around 15 minutes for your access rights to sync. In most cases you'll need to re-login on Steam Spy too.

Peak daily concurrent players:

CCU data courtesy of SteamDB. Used with permission.

Hourly concurrent players:

Followers over time

Access restricted.

This feature is only available to users with special access rights. Sorry.

If you want to proceed, you need to register or log in first and then back Steam Spy on Patreon. Look for Indie or Pro pledge.

Don't forget to use the same email as on Steam Spy!

If you've recently backed Steam Spy on Patreon, please note, that it might take around 15 minutes for your access rights to sync. In most cases you'll need to re-login on Steam Spy too.

Views for top 50 videos on YouTube for this game:

Games similar to this one:

# Game Release date
Price
Score rank
(Userscore / Metascore)
Owners
Players
Playtime (Median)
1 The Dig Nov 1, 1995 $5.99N/A (N/A)100,000 .. 200,0000%00:00 (00:00)
2 Sam & Max 201: Ice Station Santa Nov 9, 2007 $9.99N/A (N/A/82%)20,000 .. 50,0000%00:00 (00:00)
3 Back to the Future: The Game Dec 23, 2010 N/AN/A (N/A/74%)500,000 .. 1,000,0000%00:00 (00:00)
4 Lost Horizon Sep 24, 2010 $9.99N/A (N/A/77%)50,000 .. 100,0000%00:00 (00:00)
5 The Next BIG Thing Apr 21, 2011 $9.99N/A (N/A/75%)100,000 .. 200,0000%00:00 (00:00)
6 The Blackwell Legacy Jan 13, 2012 $4.99N/A (N/A/80%)100,000 .. 200,0000%00:00 (00:00)
7 Blackwell Unbound Jan 13, 2012 $4.99N/A (N/A)100,000 .. 200,0000%00:00 (00:00)
8 Hector: Badge of Carnage - Full Series Apr 27, 2011 $14.99N/A (N/A/75%)100,000 .. 200,0000%00:00 (00:00)
9 Stacking Mar 6, 2012 $9.99N/A (N/A/80%)200,000 .. 500,0000%00:00 (00:00)
10 Yesterday Mar 22, 2012 $9.99N/A (N/A/65%)100,000 .. 200,0000%00:00 (00:00)
11 The Journey Down: Chapter One Jan 9, 2013 $6.99N/A (N/A/72%)100,000 .. 200,0000%00:00 (00:00)
12 The Book of Unwritten Tales: The Critter Chronicles Dec 5, 2012 $19.99N/A (N/A/73%)50,000 .. 100,0000%00:00 (00:00)
13 Hamlet or the Last Game without MMORPG Features, Shaders ... Oct 22, 2012 $4.99N/A (N/A)200,000 .. 500,0000%00:00 (00:00)
14 The Night of the Rabbit May 28, 2013 $1.99N/A (N/A/75%)200,000 .. 500,0000%00:00 (00:00)
15 Dyscourse Mar 25, 2015 $14.99N/A (N/A/71%)50,000 .. 100,0000%00:00 (00:00)
16 The 39 Steps Apr 25, 2013 $4.99N/A (N/A)200,000 .. 500,0000%00:00 (00:00)
17 Jack Keane 2 - The Fire Within Jun 28, 2013 $9.99N/A (N/A)0 .. 20,0000%00:00 (00:00)
18 Face Noir Oct 17, 2013 $9.99N/A (N/A/59%)50,000 .. 100,0000%00:00 (00:00)
19 Eleusis Oct 16, 2013 $14.99N/A (N/A)20,000 .. 50,0000%00:00 (00:00)
20 The Inner World Sep 27, 2013 $2.99N/A (N/A/72%)100,000 .. 200,0000%00:00 (00:00)
21 Nightmares from the Deep: The Cursed Heart Apr 19, 2012 $9.99N/A (N/A)100,000 .. 200,0000%00:00 (00:00)
22 Haunted Aug 18, 2014 $14.99N/A (N/A/76%)20,000 .. 50,0000%00:00 (00:00)
23 Dark Fall 2: Lights Out Dec 3, 2013 $4.99N/A (N/A/66%)20,000 .. 50,0000%00:00 (00:00)
24 The Journey Down: Chapter Two Aug 25, 2014 $6.99N/A (N/A/78%)20,000 .. 50,0000%00:00 (00:00)
25 Moebius: Empire Rising Apr 15, 2014 $14.99N/A (N/A/54%)20,000 .. 50,0000%00:00 (00:00)
26 Lost Civilization Apr 15, 2014 $4.99N/A (N/A)20,000 .. 50,0000%00:00 (00:00)
27 Ether One Mar 25, 2014 $19.99N/A (N/A/82%)20,000 .. 50,0000%00:00 (00:00)
28 Infinite Space III: Sea of Stars Oct 29, 2015 $4.99N/A (N/A)20,000 .. 50,0000%00:00 (00:00)
29 Return to Mysterious Island Mar 6, 2014 $7.99N/A (N/A)50,000 .. 100,0000%00:00 (00:00)
30 Richard & Alice Jun 5, 2014 $5.99N/A (N/A/70%)50,000 .. 100,0000%00:00 (00:00)
31 A Boy and His Blob Jan 19, 2016 $9.99N/A (N/A)50,000 .. 100,0000%00:00 (00:00)
32 Sanitarium Apr 30, 1998 $9.99N/A (N/A)200,000 .. 500,0000%00:00 (00:00)
33 Clockwork Tales: Of Glass and Ink Aug 8, 2013 $9.99N/A (N/A)50,000 .. 100,0000%00:00 (00:00)
34 Oknytt Jul 8, 2013 $4.99N/A (N/A/61%)100,000 .. 200,0000%00:00 (00:00)
35 Nostradamus: The Last Prophecy Apr 24, 2014 $4.99N/A (N/A/70%)50,000 .. 100,0000%00:00 (00:00)
36 Whispering Willows Jul 9, 2014 $9.99N/A (N/A)200,000 .. 500,0000%00:00 (00:00)
37 The Charnel House Trilogy Apr 16, 2015 $5.99N/A (N/A/68%)20,000 .. 50,0000%00:00 (00:00)
38 The Lost Crown Jun 6, 2014 $9.99N/A (N/A/71%)50,000 .. 100,0000%00:00 (00:00)
39 Spy Fox 3 "Operation Ozone" Mar 30, 2001 $6.99N/A (N/A)0 .. 20,0000%00:00 (00:00)
40 Pajama Sam 3: You Are What You Eat From Your Head To Your Feet Apr 1, 2000 $6.99N/A (N/A)0 .. 20,0000%00:00 (00:00)
41 Detective Case and Clown Bot in: Murder in the Hotel Lisbon Jul 17, 2014 $5.99N/A (N/A)20,000 .. 50,0000%00:00 (00:00)
42 Pitiri 1977 Jan 3, 2015 $3.99N/A (N/A)20,000 .. 50,0000%00:00 (00:00)
43 Lost Chronicles of Zerzura Jul 10, 2014 $9.99N/A (N/A)20,000 .. 50,0000%00:00 (00:00)
44 Shiftlings Mar 3, 2015 $14.99N/A (N/A/70%)20,000 .. 50,0000%00:00 (00:00)
45 Boo Bunny Plague Sep 4, 2014 $1.99N/A (N/A)0 .. 20,0000%00:00 (00:00)
46 Randal's Monday Nov 12, 2014 $19.99N/A (N/A/57%)100,000 .. 200,0000%00:00 (00:00)
47 Subject 13 May 28, 2015 $9.99N/A (N/A/59%)50,000 .. 100,0000%00:00 (00:00)
48 eXperience 112 Sep 17, 2007 $9.99N/A (N/A)20,000 .. 50,0000%00:00 (00:00)
49 Fire: Ungh’s Quest Apr 9, 2015 $9.99N/A (N/A/64%)50,000 .. 100,0000%00:00 (00:00)
50 Gunspell - Steam Edition Nov 7, 2014 $14.99N/A (N/A)50,000 .. 100,0000%00:00 (00:00)
51 Supreme League of Patriots Jan 29, 2015 $5.99N/A (N/A/56%)20,000 .. 50,0000%00:00 (00:00)
52 Armikrog Sep 30, 2015 $9.99N/A (N/A/57%)100,000 .. 200,0000%00:00 (00:00)
53 Shardlight Mar 8, 2016 $14.99N/A (N/A/75%)50,000 .. 100,0000%00:00 (00:00)
54 Morningstar: Descent to Deadrock Feb 17, 2015 $9.99N/A (N/A)50,000 .. 100,0000%00:00 (00:00)
55 Dead Synchronicity: Tomorrow Comes Today Apr 10, 2015 $9.99N/A (N/A/70%)100,000 .. 200,0000%00:00 (00:00)
56 Teddy Floppy Ear - Kayaking Jan 16, 2015 $4.99N/A (N/A)100,000 .. 200,0000%00:00 (00:00)
57 Nevermind Sep 29, 2015 $19.99N/A (N/A)50,000 .. 100,0000%00:00 (00:00)
58 The Uninvited: MacVenture Series Jan 26, 2015 $2.99N/A (N/A)20,000 .. 50,0000%00:00 (00:00)
59 Lex Mortis Feb 9, 2015 $4.99N/A (N/A)50,000 .. 100,0000%00:00 (00:00)
60 Odysseus: Long Way Home Feb 23, 2015 $3.99N/A (N/A)50,000 .. 100,0000%00:00 (00:00)
61 Corrosion: Cold Winter Waiting [Enhanced Edition] Jul 1, 2015 $7.99N/A (N/A)50,000 .. 100,0000%00:00 (00:00)
62 Sylvio Jun 5, 2015 $12.99N/A (N/A/60%)0 .. 20,0000%00:00 (00:00)
63 Seasons after Fall Sep 2, 2016 $9.99N/A (N/A/75%)100,000 .. 200,0000%00:00 (00:00)
64 The Travels of Marco Polo May 6, 2015 $6.99N/A (N/A)0 .. 20,0000%00:00 (00:00)
65 Narcosis Mar 28, 2017 $14.99N/A (N/A/72%)50,000 .. 100,0000%00:00 (00:00)
66 Rememoried Aug 31, 2015 $9.99N/A (N/A)20,000 .. 50,0000%00:00 (00:00)
67 Last Heroes Nov 13, 2015 $0.89N/A (N/A)20,000 .. 50,0000%00:00 (00:00)
68 Void And Meddler Oct 28, 2015 $3.99N/A (N/A)100,000 .. 200,0000%00:00 (00:00)
69 Blues and Bullets Jul 22, 2015 $4.99N/A (N/A/73%)100,000 .. 200,0000%00:00 (00:00)
70 The Land Of Lamia Nov 23, 2015 $0.99N/A (N/A)20,000 .. 50,0000%00:00 (00:00)
71 Airport Madness 4 Dec 1, 2011 $9.99N/A (N/A)20,000 .. 50,0000%00:00 (00:00)
72 Bulb Boy Oct 29, 2015 $8.99N/A (N/A/84%)100,000 .. 200,0000%00:00 (00:00)
73 A Sirius Game Aug 21, 2015 $4.99N/A (N/A)0 .. 20,0000%00:00 (00:00)
74 The Last Dream: Developer's Edition Dec 3, 2015 $9.99N/A (N/A)20,000 .. 50,0000%00:00 (00:00)
75 Wuppo: Definitive Edition Sep 29, 2016 $14.99N/A (N/A/78%)500,000 .. 1,000,0000%00:00 (00:00)
76 The Last Door: Season 2 - Collector's Edition Mar 29, 2016 $9.99N/A (N/A/85%)20,000 .. 50,0000%00:00 (00:00)
77 Draw a Stickman: EPIC 2 Nov 6, 2015 $6.99N/A (N/A)20,000 .. 50,0000%00:00 (00:00)
78 The Uncertain: Last Quiet Day Sep 22, 2016 $14.99N/A (N/A)200,000 .. 500,0000%00:00 (00:00)
79 Sorcery! Parts 1 and 2 Feb 2, 2016 $12.99N/A (N/A/69%)50,000 .. 100,0000%00:00 (00:00)
80 Vampire Legends: The True Story of Kisilova Dec 3, 2015 $9.99N/A (N/A)50,000 .. 100,0000%00:00 (00:00)
81 Highrise Heroes: Word Challenge Jan 8, 2016 $4.99N/A (N/A)0 .. 20,0000%00:00 (00:00)
82 Space Pilgrim Episode I: Alpha Centauri Dec 14, 2015 FreeN/A (N/A)200,000 .. 500,0000%00:00 (00:00)
83 Cursed Jun 17, 2016 $4.99N/A (N/A)50,000 .. 100,0000%00:00 (00:00)
84 Space Pilgrim Episode II: Epsilon Indi Jan 9, 2016 $1.99N/A (N/A)100,000 .. 200,0000%00:00 (00:00)
85 Space Pilgrim Episode III: Delta Pavonis Feb 4, 2016 $1.99N/A (N/A)100,000 .. 200,0000%00:00 (00:00)
86 Inexistence Feb 17, 2016 $2.99N/A (N/A)50,000 .. 100,0000%00:00 (00:00)
87 Magi Trials Nov 17, 2016 $12.99N/A (N/A)0 .. 20,0000%00:00 (00:00)
88 Space Pilgrim Episode IV: Sol Mar 4, 2016 $1.99N/A (N/A)100,000 .. 200,0000%00:00 (00:00)
89 LostWinds 2: Winter of the Melodias Mar 24, 2016 $9.99N/A (N/A)20,000 .. 50,0000%00:00 (00:00)
90 Bizarre Earthquake May 11, 2016 $1.99N/A (N/A)50,000 .. 100,0000%00:00 (00:00)
91 The Deed: Dynasty May 10, 2016 $2.99N/A (N/A)50,000 .. 100,0000%00:00 (00:00)
92 A Princess' Tale May 20, 2016 $4.99N/A (N/A)0 .. 20,0000%00:00 (00:00)
93 Bottle Apr 21, 2016 $0.99N/A (N/A)20,000 .. 50,0000%00:00 (00:00)
94 Adam Wolfe Oct 7, 2016 $5.99N/A (N/A)50,000 .. 100,0000%00:00 (00:00)
95 Edge of Twilight – Return To Glory Sep 28, 2016 $14.99N/A (N/A)0 .. 20,0000%00:00 (00:00)
96 Eventide 2: The Sorcerers Mirror Oct 13, 2016 $9.99N/A (N/A)20,000 .. 50,0000%00:00 (00:00)
97 The Frostrune Feb 2, 2017 $9.99N/A (N/A)50,000 .. 100,0000%00:00 (00:00)
98 Greenwood the Last Ritual Jan 19, 2017 $2.99N/A (N/A)100,000 .. 200,0000%00:00 (00:00)
99 Bad Dream: Coma Mar 9, 2017 $8.99N/A (N/A)100,000 .. 200,0000%00:00 (00:00)
100 Project Abyss Nov 18, 2016 $4.99N/A (N/A)0 .. 20,0000%00:00 (00:00)
101 Stories Untold Feb 27, 2017 $9.99N/A (N/A/81%)100,000 .. 200,0000%00:00 (00:00)
102 Dreadhalls Mar 9, 2017 $9.99N/A (N/A)0 .. 20,0000%00:00 (00:00)

Tags over time:

Access restricted.

This feature is only available to users with special access rights. Sorry.

If you want to proceed, you need to register or log in first and then back Steam Spy on Patreon. Look for Indie or Pro pledge.

Don't forget to use the same email as on Steam Spy!

If you've recently backed Steam Spy on Patreon, please note, that it might take around 15 minutes for your access rights to sync. In most cases you'll need to re-login on Steam Spy too.

Owners of this game also own:

Access restricted.

This feature is only available to users with special access rights. Sorry.

If you want to proceed, you need to register or log in first and then back Steam Spy on Patreon. Look for Indie or Pro pledge.

Don't forget to use the same email as on Steam Spy!

If you've recently backed Steam Spy on Patreon, please note, that it might take around 15 minutes for your access rights to sync. In most cases you'll need to re-login on Steam Spy too.

Playtime distribution:

Access restricted.

This feature is only available to users with special access rights. Sorry.

If you want to proceed, you need to register or log in first and then back Steam Spy on Patreon. Look for Indie or Pro pledge.

Don't forget to use the same email as on Steam Spy!

If you've recently backed Steam Spy on Patreon, please note, that it might take around 15 minutes for your access rights to sync. In most cases you'll need to re-login on Steam Spy too.

Playtime (2 weeks):

Access restricted.

This feature is only available to users with special access rights. Sorry.

If you want to proceed, you need to register or log in first and then back Steam Spy on Patreon. Look for Indie or Pro pledge.

Don't forget to use the same email as on Steam Spy!

If you've recently backed Steam Spy on Patreon, please note, that it might take around 15 minutes for your access rights to sync. In most cases you'll need to re-login on Steam Spy too.

User reviews:

Login required.

Please register or log in to see this information.